sensor_id;sensor_type;location;lat;lon;timestamp;P1;durP1;ratioP1;P2;durP2;ratioP2
69795;SDS011;57073;45.650;9.612;2023-02-28T00:00:25;10.07;;;4.60;;
69795;SDS011;57073;45.650;9.612;2023-02-28T02:52:45;11.13;;;5.20;;
69795;SDS011;57073;45.650;9.612;2023-02-28T03:02:51;10.77;;;5.22;;
69795;SDS011;57073;45.650;9.612;2023-02-28T03:12:58;13.00;;;5.27;;
69795;SDS011;57073;45.650;9.612;2023-02-28T03:43:19;12.03;;;5.70;;
69795;SDS011;57073;45.650;9.612;2023-02-28T04:03:30;13.07;;;6.07;;
69795;SDS011;57073;45.650;9.612;2023-02-28T04:13:32;12.77;;;6.00;;
69795;SDS011;57073;45.650;9.612;2023-02-28T04:23:32;15.65;;;6.60;;
69795;SDS011;57073;45.650;9.612;2023-02-28T04:33:33;11.80;;;5.97;;
69795;SDS011;57073;45.650;9.612;2023-02-28T04:43:33;14.13;;;6.30;;
69795;SDS011;57073;45.650;9.612;2023-02-28T04:53:34;15.88;;;6.43;;
69795;SDS011;57073;45.650;9.612;2023-02-28T05:03:36;13.23;;;6.70;;
69795;SDS011;57073;45.650;9.612;2023-02-28T05:13:37;15.60;;;6.47;;
69795;SDS011;57073;45.650;9.612;2023-02-28T05:23:37;13.67;;;6.90;;
69795;SDS011;57073;45.650;9.612;2023-02-28T05:33:37;15.30;;;6.23;;
69795;SDS011;57073;45.650;9.612;2023-02-28T05:43:38;13.57;;;6.57;;
69795;SDS011;57073;45.650;9.612;2023-02-28T05:53:38;14.38;;;6.53;;
69795;SDS011;57073;45.650;9.612;2023-02-28T06:03:38;16.15;;;7.60;;
69795;SDS011;57073;45.650;9.612;2023-02-28T06:13:39;14.17;;;6.83;;
69795;SDS011;57073;45.650;9.612;2023-02-28T06:23:39;16.48;;;7.40;;
69795;SDS011;57073;45.650;9.612;2023-02-28T06:33:40;15.30;;;7.13;;
69795;SDS011;57073;45.650;9.612;2023-02-28T06:43:41;18.63;;;7.88;;
69795;SDS011;57073;45.650;9.612;2023-02-28T06:53:42;21.40;;;8.53;;
69795;SDS011;57073;45.650;9.612;2023-02-28T07:03:43;18.37;;;8.50;;
69795;SDS011;57073;45.650;9.612;2023-02-28T07:13:43;21.05;;;8.40;;
69795;SDS011;57073;45.650;9.612;2023-02-28T07:23:43;17.10;;;7.90;;
69795;SDS011;57073;45.650;9.612;2023-02-28T07:33:44;16.33;;;8.33;;
69795;SDS011;57073;45.650;9.612;2023-02-28T07:43:45;17.47;;;8.37;;
69795;SDS011;57073;45.650;9.612;2023-02-28T07:53:45;17.83;;;8.55;;
69795;SDS011;57073;45.650;9.612;2023-02-28T08:03:45;18.70;;;9.05;;
69795;SDS011;57073;45.650;9.612;2023-02-28T08:13:46;20.05;;;9.60;;
69795;SDS011;57073;45.650;9.612;2023-02-28T08:23:47;19.77;;;9.87;;
69795;SDS011;57073;45.650;9.612;2023-02-28T08:33:48;16.92;;;8.50;;
69795;SDS011;57073;45.650;9.612;2023-02-28T08:43:51;16.83;;;8.13;;
69795;SDS011;57073;45.650;9.612;2023-02-28T08:53:54;16.83;;;9.47;;
69795;SDS011;57073;45.650;9.612;2023-02-28T09:03:57;20.67;;;10.05;;
69795;SDS011;57073;45.650;9.612;2023-02-28T09:13:58;20.13;;;9.83;;
69795;SDS011;57073;45.650;9.612;2023-02-28T09:24:00;20.73;;;9.90;;
69795;SDS011;57073;45.650;9.612;2023-02-28T09:34:00;17.77;;;9.95;;
69795;SDS011;57073;45.650;9.612;2023-02-28T09:44:02;19.23;;;9.77;;
69795;SDS011;57073;45.650;9.612;2023-02-28T09:54:04;18.70;;;10.03;;
69795;SDS011;57073;45.650;9.612;2023-02-28T10:04:08;21.57;;;10.47;;
69795;SDS011;57073;45.650;9.612;2023-02-28T10:14:26;19.20;;;10.23;;
69795;SDS011;57073;45.650;9.612;2023-02-28T10:24:32;18.43;;;9.80;;
69795;SDS011;57073;45.650;9.612;2023-02-28T10:34:38;20.10;;;10.70;;
69795;SDS011;57073;45.650;9.612;2023-02-28T10:44:39;18.55;;;10.50;;
69795;SDS011;57073;45.650;9.612;2023-02-28T10:54:39;21.60;;;10.90;;
69795;SDS011;57073;45.650;9.612;2023-02-28T11:04:40;18.43;;;10.27;;
69795;SDS011;57073;45.650;9.612;2023-02-28T11:14:49;21.43;;;10.80;;
69795;SDS011;57073;45.650;9.612;2023-02-28T11:24:52;18.57;;;11.03;;
69795;SDS011;57073;45.650;9.612;2023-02-28T11:55:24;22.05;;;11.18;;
69795;SDS011;57073;45.650;9.612;2023-02-28T12:05:38;19.47;;;10.70;;
69795;SDS011;57073;45.650;9.612;2023-02-28T12:26:07;20.42;;;10.45;;
69795;SDS011;57073;45.650;9.612;2023-02-28T12:36:20;17.63;;;10.73;;
69795;SDS011;57073;45.650;9.612;2023-02-28T12:46:23;21.97;;;11.43;;
69795;SDS011;57073;45.650;9.612;2023-02-28T12:56:43;20.60;;;10.88;;
69795;SDS011;57073;45.650;9.612;2023-02-28T13:47:27;18.50;;;11.18;;
69795;SDS011;57073;45.650;9.612;2023-02-28T14:07:38;16.33;;;9.37;;
69795;SDS011;57073;45.650;9.612;2023-02-28T14:17:45;21.55;;;11.35;;
69795;SDS011;57073;45.650;9.612;2023-02-28T14:38:16;22.33;;;11.10;;
69795;SDS011;57073;45.650;9.612;2023-02-28T14:48:21;18.40;;;10.83;;
69795;SDS011;57073;45.650;9.612;2023-02-28T14:58:25;19.33;;;10.87;;
69795;SDS011;57073;45.650;9.612;2023-02-28T15:08:30;18.02;;;10.50;;
69795;SDS011;57073;45.650;9.612;2023-02-28T15:28:42;17.83;;;10.83;;
69795;SDS011;57073;45.650;9.612;2023-02-28T15:38:43;18.83;;;10.50;;
69795;SDS011;57073;45.650;9.612;2023-02-28T15:48:53;19.83;;;10.98;;
69795;SDS011;57073;45.650;9.612;2023-02-28T15:58:59;20.67;;;11.23;;
69795;SDS011;57073;45.650;9.612;2023-02-28T16:09:03;20.03;;;11.33;;
69795;SDS011;57073;45.650;9.612;2023-02-28T16:19:05;22.10;;;11.25;;
69795;SDS011;57073;45.650;9.612;2023-02-28T16:29:05;19.90;;;11.17;;
69795;SDS011;57073;45.650;9.612;2023-02-28T16:39:06;19.67;;;11.05;;
69795;SDS011;57073;45.650;9.612;2023-02-28T16:49:10;20.37;;;10.83;;
69795;SDS011;57073;45.650;9.612;2023-02-28T16:59:12;23.10;;;11.90;;
69795;SDS011;57073;45.650;9.612;2023-02-28T17:09:18;21.13;;;11.37;;
69795;SDS011;57073;45.650;9.612;2023-02-28T17:19:22;25.13;;;13.05;;
69795;SDS011;57073;45.650;9.612;2023-02-28T17:29:23;25.77;;;13.47;;
69795;SDS011;57073;45.650;9.612;2023-02-28T17:39:24;24.15;;;13.30;;
69795;SDS011;57073;45.650;9.612;2023-02-28T17:49:24;25.20;;;13.88;;
69795;SDS011;57073;45.650;9.612;2023-02-28T17:59:25;24.73;;;13.43;;
69795;SDS011;57073;45.650;9.612;2023-02-28T18:09:26;36.65;;;19.60;;
69795;SDS011;57073;45.650;9.612;2023-02-28T18:19:34;28.81;;;15.46;;
69795;SDS011;57073;45.650;9.612;2023-02-28T18:29:35;31.40;;;15.27;;
69795;SDS011;57073;45.650;9.612;2023-02-28T18:39:36;32.17;;;17.23;;
69795;SDS011;57073;45.650;9.612;2023-02-28T18:49:37;38.00;;;19.23;;
69795;SDS011;57073;45.650;9.612;2023-02-28T18:59:37;39.78;;;17.02;;
69795;SDS011;57073;45.650;9.612;2023-02-28T19:09:38;29.90;;;15.65;;
69795;SDS011;57073;45.650;9.612;2023-02-28T19:19:38;29.07;;;15.50;;
69795;SDS011;57073;45.650;9.612;2023-02-28T19:29:38;28.47;;;15.53;;
69795;SDS011;57073;45.650;9.612;2023-02-28T19:39:41;30.77;;;16.98;;
69795;SDS011;57073;45.650;9.612;2023-02-28T19:49:42;30.30;;;17.37;;
69795;SDS011;57073;45.650;9.612;2023-02-28T19:59:43;30.75;;;17.30;;
69795;SDS011;57073;45.650;9.612;2023-02-28T20:09:43;35.38;;;16.77;;
69795;SDS011;57073;45.650;9.612;2023-02-28T20:19:44;31.33;;;17.20;;
69795;SDS011;57073;45.650;9.612;2023-02-28T20:29:44;34.33;;;17.42;;
69795;SDS011;57073;45.650;9.612;2023-02-28T20:39:45;44.65;;;20.98;;
69795;SDS011;57073;45.650;9.612;2023-02-28T20:49:45;41.23;;;19.57;;
69795;SDS011;57073;45.650;9.612;2023-02-28T20:59:45;36.03;;;18.40;;
69795;SDS011;57073;45.650;9.612;2023-02-28T21:09:46;40.63;;;18.50;;
69795;SDS011;57073;45.650;9.612;2023-02-28T21:19:46;36.90;;;17.10;;
69795;SDS011;57073;45.650;9.612;2023-02-28T21:29:46;35.45;;;17.67;;
69795;SDS011;57073;45.650;9.612;2023-02-28T21:39:47;35.95;;;17.92;;
69795;SDS011;57073;45.650;9.612;2023-02-28T21:49:47;34.17;;;18.20;;
69795;SDS011;57073;45.650;9.612;2023-02-28T21:59:47;34.33;;;16.67;;
69795;SDS011;57073;45.650;9.612;2023-02-28T22:09:48;33.63;;;17.45;;
69795;SDS011;57073;45.650;9.612;2023-02-28T22:19:48;33.57;;;17.20;;
69795;SDS011;57073;45.650;9.612;2023-02-28T22:29:48;35.65;;;16.83;;
69795;SDS011;57073;45.650;9.612;2023-02-28T22:39:49;33.60;;;16.92;;
69795;SDS011;57073;45.650;9.612;2023-02-28T22:49:49;30.58;;;16.58;;
69795;SDS011;57073;45.650;9.612;2023-02-28T22:59:49;34.03;;;16.87;;
69795;SDS011;57073;45.650;9.612;2023-02-28T23:09:50;38.45;;;17.75;;
69795;SDS011;57073;45.650;9.612;2023-02-28T23:19:50;35.23;;;17.63;;
69795;SDS011;57073;45.650;9.612;2023-02-28T23:29:50;35.30;;;16.65;;
69795;SDS011;57073;45.650;9.612;2023-02-28T23:39:51;36.03;;;17.07;;
69795;SDS011;57073;45.650;9.612;2023-02-28T23:49:51;31.02;;;16.02;;
69795;SDS011;57073;45.650;9.612;2023-02-28T23:59:52;27.20;;;14.30;;
